Time;durP1;ratioP1;P1;durP2;ratioP2;P2;SDS_P1;SDS_P2;PMS_P1;PMS_P2;Temp;Humidity;BMP_temperature;BMP_pressure;BME280_temperature;BME280_humidity;BME280_pressure;Samples;Min_cycle;Max_cycle;Signal;HPM_P1;HPM_P2
2021/04/24 00:02:48;;;;;;;26.88;16.85;;;;;;;;;;6095720;29;20055;-75
2021/04/24 00:05:49;;;;;;;24.52;16.77;;;;;;;;;;6099237;29;20100;-75
2021/04/24 00:08:50;;;;;;;23.08;16.98;;;;;;;;;;6097629;29;20139;-75
2021/04/24 00:11:51;;;;;;;21.77;17.85;;;;;;;;;;6092567;29;20076;-75
2021/04/24 00:14:53;;;;;;;22.90;17.67;;;;;;;;;;6092213;29;20075;-74
2021/04/24 00:17:55;;;;;;;22.00;16.83;;;;;;;;;;6092312;29;20079;-75
2021/04/24 00:20:56;;;;;;;24.05;17.08;;;;;;;;;;6082385;29;20131;-74
2021/04/24 00:23:57;;;;;;;20.85;17.55;;;;;;;;;;6081777;29;20135;-74
2021/04/24 00:26:58;;;;;;;23.48;16.75;;;;;;;;;;6085193;29;20080;-74
2021/04/24 00:30:00;;;;;;;26.70;16.33;;;;;;;;;;6084043;29;20135;-75
2021/04/24 00:33:01;;;;;;;26.05;16.98;;;;;;;;;;6087244;29;20630;-75
2021/04/24 00:36:02;;;;;;;24.60;17.08;;;;;;;;;;6082092;29;20173;-76
2021/04/24 00:39:05;;;;;;;24.33;17.90;;;;;;;;;;6084495;29;20068;-74
2021/04/24 00:42:06;;;;;;;23.33;17.00;;;;;;;;;;6080806;29;20088;-75
2021/04/24 00:45:10;;;;;;;24.25;16.48;;;;;;;;;;6081784;29;20070;-75
2021/04/24 00:48:12;;;;;;;23.77;16.88;;;;;;;;;;6094808;29;20088;-76
2021/04/24 00:51:13;;;;;;;25.50;17.08;;;;;;;;;;6065373;29;20053;-76
2021/04/24 00:54:15;;;;;;;26.20;17.80;;;;;;;;;;6080672;29;20069;-76
2021/04/24 00:57:16;;;;;;;24.25;17.90;;;;;;;;;;6087391;29;20506;-74
2021/04/24 01:00:22;;;;;;;20.50;16.52;;;;;;;;;;6084849;29;20813;-74
2021/04/24 01:03:23;;;;;;;23.75;16.70;;;;;;;;;;6380127;23;21035;-78
2021/04/24 01:06:24;;;;;;;21.25;17.35;;;;;;;;;;6069033;29;20135;-73
2021/04/24 01:09:26;;;;;;;23.00;17.23;;;;;;;;;;6073860;29;20068;-74
2021/04/24 01:12:27;;;;;;;28.35;18.25;;;;;;;;;;6063150;29;20143;-74
2021/04/24 01:15:29;;;;;;;23.48;17.15;;;;;;;;;;6073849;29;20162;-76
2021/04/24 01:18:30;;;;;;;25.63;16.73;;;;;;;;;;6062557;29;20587;-77
2021/04/24 01:21:32;;;;;;;25.40;17.20;;;;;;;;;;6067088;29;20463;-75
2021/04/24 01:24:34;;;;;;;24.20;16.30;;;;;;;;;;6058340;29;20052;-75
2021/04/24 01:27:35;;;;;;;21.10;16.23;;;;;;;;;;6061455;29;20088;-75
2021/04/24 01:30:39;;;;;;;19.58;16.05;;;;;;;;;;6063142;29;20157;-76
2021/04/24 01:33:40;;;;;;;24.08;16.77;;;;;;;;;;6064725;29;20098;-76
2021/04/24 01:36:41;;;;;;;23.75;17.00;;;;;;;;;;6063081;29;20155;-75
2021/04/24 01:39:43;;;;;;;23.52;16.58;;;;;;;;;;6062962;29;20072;-75
2021/04/24 01:42:45;;;;;;;20.27;15.77;;;;;;;;;;6071904;29;20048;-76
2021/04/24 01:45:46;;;;;;;23.30;16.02;;;;;;;;;;6068436;29;20080;-75
2021/04/24 01:48:47;;;;;;;28.73;16.42;;;;;;;;;;6065135;29;20052;-75
2021/04/24 01:51:48;;;;;;;22.60;16.38;;;;;;;;;;6065726;29;20521;-75
2021/04/24 01:54:50;;;;;;;22.10;16.33;;;;;;;;;;6067671;29;20135;-76
2021/04/24 01:57:52;;;;;;;21.35;16.05;;;;;;;;;;6063066;29;20087;-76
2021/04/24 02:00:55;;;;;;;21.25;15.73;;;;;;;;;;6065231;29;20502;-76
2021/04/24 02:03:56;;;;;;;19.77;15.25;;;;;;;;;;6066337;29;20087;-76
2021/04/24 02:06:57;;;;;;;22.48;16.05;;;;;;;;;;6066015;29;20056;-75
2021/04/24 02:09:59;;;;;;;20.90;15.15;;;;;;;;;;6064947;29;20152;-76
2021/04/24 02:13:03;;;;;;;17.48;15.32;;;;;;;;;;6063581;29;20072;-76
2021/04/24 02:16:05;;;;;;;21.90;15.70;;;;;;;;;;6067974;29;20079;-77
2021/04/24 02:19:06;;;;;;;21.95;15.20;;;;;;;;;;6068273;29;20139;-75
2021/04/24 02:22:08;;;;;;;20.67;15.90;;;;;;;;;;6064760;29;20076;-75
2021/04/24 02:25:13;;;;;;;20.08;15.75;;;;;;;;;;6072534;29;20138;-75
2021/04/24 02:28:15;;;;;;;20.25;15.45;;;;;;;;;;6046679;29;20072;-76
2021/04/24 02:31:16;;;;;;;19.55;15.55;;;;;;;;;;6072747;29;20076;-76
2021/04/24 02:34:17;;;;;;;22.85;15.18;;;;;;;;;;6069281;29;20465;-76
2021/04/24 02:37:20;;;;;;;20.48;14.85;;;;;;;;;;6070800;29;20068;-76
2021/04/24 02:40:22;;;;;;;20.75;15.73;;;;;;;;;;6069114;29;20128;-76
2021/04/24 02:43:23;;;;;;;21.80;15.05;;;;;;;;;;6068420;29;20075;-75
2021/04/24 02:46:24;;;;;;;23.02;16.10;;;;;;;;;;6075153;29;20148;-76
2021/04/24 02:49:26;;;;;;;23.15;15.70;;;;;;;;;;6074473;29;20135;-76
2021/04/24 02:52:27;;;;;;;20.38;14.45;;;;;;;;;;6072798;29;20048;-76
2021/04/24 02:55:29;;;;;;;22.27;15.75;;;;;;;;;;6063566;29;20411;-77
2021/04/24 02:58:30;;;;;;;23.58;15.73;;;;;;;;;;6069098;29;20076;-76
2021/04/24 03:01:31;;;;;;;22.08;15.73;;;;;;;;;;6066494;29;20060;-76
2021/04/24 03:04:33;;;;;;;24.77;15.45;;;;;;;;;;6071548;29;20077;-76
2021/04/24 03:07:34;;;;;;;20.50;14.98;;;;;;;;;;6063723;29;20144;-76
2021/04/24 03:10:36;;;;;;;20.10;15.50;;;;;;;;;;6064684;29;20076;-76
2021/04/24 03:13:37;;;;;;;21.65;16.10;;;;;;;;;;6074812;29;20124;-76
2021/04/24 03:16:39;;;;;;;21.60;15.48;;;;;;;;;;6069355;29;20078;-77
2021/04/24 03:19:40;;;;;;;21.92;15.30;;;;;;;;;;6058487;29;20045;-76
2021/04/24 03:22:41;;;;;;;19.35;15.45;;;;;;;;;;6048165;29;20072;-76
2021/04/24 03:25:43;;;;;;;22.73;15.63;;;;;;;;;;6061772;29;20135;-77
2021/04/24 03:28:45;;;;;;;21.00;15.82;;;;;;;;;;6062859;29;20072;-76
2021/04/24 03:31:46;;;;;;;21.20;15.23;;;;;;;;;;6059274;29;20728;-76
2021/04/24 03:34:47;;;;;;;23.52;16.23;;;;;;;;;;6072212;29;20053;-77
2021/04/24 03:37:48;;;;;;;19.65;15.13;;;;;;;;;;6073622;29;20722;-76
2021/04/24 03:40:50;;;;;;;20.15;15.80;;;;;;;;;;6074107;29;20125;-77
2021/04/24 03:43:51;;;;;;;18.65;14.75;;;;;;;;;;6074327;29;20091;-77
2021/04/24 03:46:52;;;;;;;26.40;16.42;;;;;;;;;;6072974;29;20084;-77
2021/04/24 03:49:53;;;;;;;21.95;15.60;;;;;;;;;;6070252;29;20076;-76
2021/04/24 03:52:54;;;;;;;21.08;14.98;;;;;;;;;;6074855;29;20073;-77
2021/04/24 03:55:56;;;;;;;21.17;15.43;;;;;;;;;;6067200;29;20049;-76
2021/04/24 03:58:57;;;;;;;24.23;15.65;;;;;;;;;;6062070;29;20057;-76
2021/04/24 04:01:58;;;;;;;22.45;15.98;;;;;;;;;;6063997;29;20131;-76
2021/04/24 04:04:59;;;;;;;22.50;16.70;;;;;;;;;;6073231;29;20080;-76
2021/04/24 04:08:01;;;;;;;25.42;16.08;;;;;;;;;;6070446;29;20087;-76
2021/04/24 04:11:03;;;;;;;22.05;14.85;;;;;;;;;;6075754;29;20127;-76
2021/04/24 04:14:04;;;;;;;22.70;15.45;;;;;;;;;;6073323;29;20508;-76
2021/04/24 04:17:05;;;;;;;23.33;15.63;;;;;;;;;;6065736;29;20055;-76
2021/04/24 04:20:09;;;;;;;22.45;16.50;;;;;;;;;;6062089;29;20144;-77
2021/04/24 04:23:11;;;;;;;20.88;15.90;;;;;;;;;;6067934;29;20131;-76
2021/04/24 04:26:13;;;;;;;23.80;15.73;;;;;;;;;;6060248;29;20081;-76
2021/04/24 04:29:14;;;;;;;23.75;16.75;;;;;;;;;;6063483;29;20136;-76
2021/04/24 04:32:15;;;;;;;28.98;15.82;;;;;;;;;;6061946;29;20678;-76
2021/04/24 04:35:17;;;;;;;25.70;15.32;;;;;;;;;;6065350;29;20117;-75
2021/04/24 04:38:18;;;;;;;26.10;16.40;;;;;;;;;;6061520;29;20083;-76
2021/04/24 04:41:20;;;;;;;21.75;16.30;;;;;;;;;;6064297;29;20068;-78
2021/04/24 04:44:21;;;;;;;24.20;15.13;;;;;;;;;;6064632;29;20144;-77
2021/04/24 04:47:22;;;;;;;24.38;15.70;;;;;;;;;;6060399;29;20145;-77
2021/04/24 04:50:25;;;;;;;22.80;15.65;;;;;;;;;;6066439;29;20048;-77
2021/04/24 04:53:26;;;;;;;24.70;16.45;;;;;;;;;;6073329;29;20044;-78
2021/04/24 04:56:28;;;;;;;21.00;15.10;;;;;;;;;;6065674;29;20080;-75
2021/04/24 04:59:29;;;;;;;26.60;15.70;;;;;;;;;;6060518;29;20057;-76
2021/04/24 05:02:30;;;;;;;25.00;15.25;;;;;;;;;;6064773;29;20128;-76
2021/04/24 05:05:31;;;;;;;25.08;16.00;;;;;;;;;;6069477;29;20083;-76
2021/04/24 05:08:35;;;;;;;21.73;15.85;;;;;;;;;;6073631;29;20088;-76
2021/04/24 05:11:37;;;;;;;;;;;;;;;;;;6075669;29;20104;-76
2021/04/24 05:14:38;;;;;;;28.83;15.70;;;;;;;;;;6076747;29;20002;-76
2021/04/24 05:17:39;;;;;;;21.55;15.15;;;;;;;;;;6062315;29;20112;-77
2021/04/24 05:20:40;;;;;;;22.23;15.82;;;;;;;;;;6059506;29;20076;-76
2021/04/24 05:23:41;;;;;;;22.02;15.63;;;;;;;;;;6060555;29;20091;-76
2021/04/24 05:26:43;;;;;;;19.88;15.23;;;;;;;;;;6060332;29;20180;-77
2021/04/24 05:29:44;;;;;;;24.00;16.50;;;;;;;;;;6072103;29;20774;-76
2021/04/24 05:32:46;;;;;;;24.58;16.58;;;;;;;;;;6076437;29;20123;-76
2021/04/24 05:35:47;;;;;;;27.27;16.58;;;;;;;;;;6064110;29;20180;-76
2021/04/24 05:38:49;;;;;;;24.15;16.48;;;;;;;;;;6059439;29;20144;-77
2021/04/24 05:41:51;;;;;;;23.83;17.73;;;;;;;;;;6069825;29;20086;-76
2021/04/24 05:44:52;;;;;;;28.33;17.63;;;;;;;;;;6067556;29;20084;-76
2021/04/24 05:47:53;;;;;;;24.90;16.25;;;;;;;;;;6068451;29;20091;-76
2021/04/24 05:50:54;;;;;;;22.13;16.10;;;;;;;;;;6073060;29;20143;-76
2021/04/24 05:53:55;;;;;;;23.38;15.77;;;;;;;;;;6067675;29;20076;-76
2021/04/24 05:56:57;;;;;;;21.60;15.77;;;;;;;;;;6068742;29;20076;-76
2021/04/24 05:59:58;;;;;;;26.70;16.60;;;;;;;;;;6069545;29;20131;-76
2021/04/24 06:02:59;;;;;;;23.10;17.02;;;;;;;;;;6073978;29;20159;-75
2021/04/24 06:06:00;;;;;;;22.73;17.40;;;;;;;;;;6064057;29;20113;-75
2021/04/24 06:09:02;;;;;;;26.17;18.00;;;;;;;;;;6061366;29;20084;-75
2021/04/24 06:12:04;;;;;;;26.55;17.55;;;;;;;;;;6066522;29;20119;-75
2021/04/24 06:15:07;;;;;;;22.67;16.65;;;;;;;;;;6072125;29;20540;-75
2021/04/24 06:18:08;;;;;;;26.10;17.35;;;;;;;;;;6057269;29;20128;-76
2021/04/24 06:21:09;;;;;;;24.25;17.48;;;;;;;;;;6062980;29;20135;-76
2021/04/24 06:24:11;;;;;;;22.92;16.80;;;;;;;;;;6063300;29;20159;-76
2021/04/24 06:27:12;;;;;;;26.10;16.85;;;;;;;;;;6062871;29;20509;-76
2021/04/24 06:30:15;;;;;;;23.55;16.55;;;;;;;;;;6058129;29;20053;-76
2021/04/24 06:33:17;;;;;;;23.88;17.48;;;;;;;;;;6061636;29;20064;-76
2021/04/24 06:36:18;;;;;;;22.33;17.02;;;;;;;;;;6066832;29;20067;-76
2021/04/24 06:39:19;;;;;;;29.23;17.35;;;;;;;;;;6060306;29;20083;-76
2021/04/24 06:42:21;;;;;;;28.15;18.08;;;;;;;;;;6069629;29;20599;-77
2021/04/24 06:45:22;;;;;;;25.83;17.40;;;;;;;;;;6068704;29;20052;-75
2021/04/24 06:48:23;;;;;;;25.33;17.92;;;;;;;;;;6070408;29;20097;-74
2021/04/24 06:51:25;;;;;;;22.33;16.27;;;;;;;;;;6074020;29;20088;-76
2021/04/24 06:54:26;;;;;;;25.00;17.65;;;;;;;;;;6068117;29;20044;-74
2021/04/24 06:57:28;;;;;;;20.98;17.33;;;;;;;;;;6074645;29;20424;-76
2021/04/24 07:00:29;;;;;;;26.17;17.13;;;;;;;;;;6070112;29;20068;-75
2021/04/24 07:03:30;;;;;;;23.70;16.67;;;;;;;;;;6073017;29;20552;-75
2021/04/24 07:06:31;;;;;;;25.05;16.92;;;;;;;;;;6070626;29;20143;-74
2021/04/24 07:09:32;;;;;;;22.80;15.82;;;;;;;;;;6065118;29;20084;-74
2021/04/24 07:12:34;;;;;;;19.95;15.82;;;;;;;;;;6061558;29;20140;-74
2021/04/24 07:15:36;;;;;;;22.95;16.48;;;;;;;;;;6061777;29;20109;-75
2021/04/24 07:18:37;;;;;;;18.17;15.18;;;;;;;;;;6059739;29;20088;-75
2021/04/24 07:21:38;;;;;;;19.63;15.43;;;;;;;;;;6061950;29;20072;-73
2021/04/24 07:24:44;;;;;;;17.13;14.10;;;;;;;;;;6060507;29;20063;-73
2021/04/24 07:27:46;;;;;;;17.60;12.73;;;;;;;;;;6057591;29;20060;-79
2021/04/24 07:30:48;;;;;;;21.10;13.75;;;;;;;;;;6062635;29;20045;-75
2021/04/24 07:33:49;;;;;;;16.25;14.48;;;;;;;;;;6067860;29;20056;-75
2021/04/24 07:36:50;;;;;;;20.10;14.70;;;;;;;;;;6065477;29;20076;-72
2021/04/24 07:39:51;;;;;;;20.80;15.90;;;;;;;;;;6064142;29;20077;-73
2021/04/24 07:42:53;;;;;;;20.95;14.98;;;;;;;;;;6065090;29;20064;-74
2021/04/24 07:45:54;;;;;;;18.30;14.93;;;;;;;;;;6067563;29;20132;-74
2021/04/24 07:48:55;;;;;;;19.95;16.27;;;;;;;;;;6071323;29;20123;-75
2021/04/24 07:51:56;;;;;;;19.10;16.30;;;;;;;;;;6074191;29;20177;-74
2021/04/24 07:54:57;;;;;;;24.00;16.35;;;;;;;;;;6064605;29;20148;-75
2021/04/24 07:57:59;;;;;;;26.05;16.55;;;;;;;;;;6059935;29;20151;-75
2021/04/24 08:01:01;;;;;;;19.98;15.95;;;;;;;;;;6068227;29;20134;-75
2021/04/24 08:04:02;;;;;;;19.95;16.42;;;;;;;;;;6059461;29;20064;-75
2021/04/24 08:07:03;;;;;;;19.85;16.08;;;;;;;;;;6061024;29;20096;-75
2021/04/24 08:10:06;;;;;;;20.98;17.00;;;;;;;;;;6061775;29;20167;-75
2021/04/24 08:13:08;;;;;;;20.45;15.68;;;;;;;;;;6060469;29;20133;-76
2021/04/24 08:16:09;;;;;;;18.80;15.50;;;;;;;;;;6061079;29;20084;-75
2021/04/24 08:19:10;;;;;;;20.40;15.35;;;;;;;;;;6057416;29;20139;-75
2021/04/24 08:22:11;;;;;;;22.38;16.17;;;;;;;;;;6066967;29;20440;-73
2021/04/24 08:25:13;;;;;;;23.75;15.52;;;;;;;;;;6067575;29;20472;-76
2021/04/24 08:28:15;;;;;;;20.80;15.98;;;;;;;;;;6060461;29;20488;-75
2021/04/24 08:31:16;;;;;;;21.10;15.05;;;;;;;;;;6073637;29;20084;-76
2021/04/24 08:34:20;;;;;;;17.92;14.43;;;;;;;;;;6072161;29;20056;-74
2021/04/24 08:37:21;;;;;;;18.40;14.98;;;;;;;;;;6076236;29;20488;-74
2021/04/24 08:40:22;;;;;;;19.58;14.00;;;;;;;;;;6067596;29;20045;-76
2021/04/24 08:43:25;;;;;;;17.83;12.27;;;;;;;;;;6074528;29;20573;-75
2021/04/24 08:46:27;;;;;;;19.30;13.85;;;;;;;;;;6070744;29;20080;-75
2021/04/24 08:49:28;;;;;;;17.27;14.90;;;;;;;;;;6051811;29;20048;-76
2021/04/24 08:52:29;;;;;;;15.25;12.45;;;;;;;;;;6074830;29;20505;-77
2021/04/24 08:55:33;;;;;;;14.43;9.60;;;;;;;;;;6070762;29;20097;-77
2021/04/24 08:58:35;;;;;;;13.10;11.00;;;;;;;;;;6064986;29;20155;-76
2021/04/24 09:01:36;;;;;;;15.32;10.98;;;;;;;;;;6063960;29;20124;-76
2021/04/24 09:04:37;;;;;;;16.25;11.52;;;;;;;;;;6070737;29;20513;-76
2021/04/24 09:07:39;;;;;;;9.73;6.85;;;;;;;;;;6075918;29;20132;-76
2021/04/24 09:10:45;;;;;;;11.00;8.50;;;;;;;;;;6069817;29;20079;-77
2021/04/24 09:13:58;;;;;;;14.38;12.57;;;;;;;;;;6062402;29;20564;-77
2021/04/24 09:17:00;;;;;;;13.70;10.73;;;;;;;;;;6066175;29;20243;-78
2021/04/24 09:20:07;;;;;;;14.52;11.43;;;;;;;;;;6066529;29;20090;-77
2021/04/24 09:23:08;;;;;;;13.52;10.38;;;;;;;;;;6069033;29;20130;-74
2021/04/24 09:26:10;;;;;;;13.98;10.13;;;;;;;;;;6065248;29;20061;-74
2021/04/24 09:29:12;;;;;;;12.05;9.45;;;;;;;;;;6065178;29;20049;-75
2021/04/24 09:32:15;;;;;;;12.95;9.40;;;;;;;;;;6063954;29;20582;-74
2021/04/24 09:35:20;;;;;;;11.55;7.43;;;;;;;;;;6070588;29;20123;-73
2021/04/24 09:38:27;;;;;;;14.18;9.60;;;;;;;;;;6060861;29;20629;-73
2021/04/24 09:41:33;;;;;;;15.63;9.90;;;;;;;;;;6065846;29;20056;-74
2021/04/24 09:44:35;;;;;;;12.32;9.88;;;;;;;;;;6037948;29;20053;-74
2021/04/24 09:47:40;;;;;;;11.75;10.40;;;;;;;;;;6066976;29;20107;-75
2021/04/24 09:50:42;;;;;;;13.02;11.48;;;;;;;;;;6066434;29;20076;-75
2021/04/24 09:53:53;;;;;;;13.93;12.50;;;;;;;;;;6062953;29;20096;-74
2021/04/24 09:56:56;;;;;;;14.90;10.98;;;;;;;;;;6057544;29;20045;-75
2021/04/24 09:59:59;;;;;;;11.35;8.70;;;;;;;;;;6066129;29;20064;-74
2021/04/24 10:03:00;;;;;;;13.30;10.90;;;;;;;;;;6061474;29;20056;-75
2021/04/24 10:06:26;;;;;;;14.65;11.90;;;;;;;;;;6057923;29;20134;-74
2021/04/24 10:09:29;;;;;;;11.73;10.20;;;;;;;;;;6062305;29;20072;-75
2021/04/24 10:12:30;;;;;;;11.88;10.23;;;;;;;;;;6053582;29;20049;-75
2021/04/24 10:15:36;;;;;;;14.23;11.50;;;;;;;;;;6064367;29;20268;-75
2021/04/24 10:18:37;;;;;;;13.10;11.75;;;;;;;;;;6056882;29;20397;-75
2021/04/24 10:21:38;;;;;;;15.63;12.88;;;;;;;;;;6054805;29;20587;-74
2021/04/24 10:24:39;;;;;;;11.68;10.30;;;;;;;;;;6061942;29;20685;-74
2021/04/24 10:27:41;;;;;;;13.95;11.32;;;;;;;;;;6062525;29;20738;-73
2021/04/24 10:30:43;;;;;;;14.10;10.82;;;;;;;;;;6065941;29;20143;-76
2021/04/24 10:33:45;;;;;;;14.23;11.30;;;;;;;;;;6061798;29;20132;-74
2021/04/24 10:36:46;;;;;;;11.73;10.52;;;;;;;;;;6063704;29;20044;-75
2021/04/24 10:39:47;;;;;;;12.00;10.88;;;;;;;;;;6064582;29;20132;-74
2021/04/24 10:42:51;;;;;;;14.63;11.80;;;;;;;;;;6068526;29;20473;-78
2021/04/24 10:45:53;;;;;;;14.00;10.52;;;;;;;;;;6066370;29;20131;-79
2021/04/24 10:49:16;;;;;;;15.02;11.07;;;;;;;;;;6065816;29;20121;-78
2021/04/24 10:52:22;;;;;;;13.05;11.48;;;;;;;;;;6067363;29;20053;-77
2021/04/24 10:55:26;;;;;;;10.75;9.55;;;;;;;;;;6068894;29;20132;-78
2021/04/24 10:58:29;;;;;;;11.80;9.60;;;;;;;;;;6063812;29;20496;-78
2021/04/24 11:02:05;;;;;;;10.55;9.48;;;;;;;;;;6067536;29;20761;-79
2021/04/24 11:05:18;;;;;;;11.40;10.30;;;;;;;;;;6063918;29;20108;-78
2021/04/24 11:08:24;;;;;;;12.43;9.13;;;;;;;;;;6067037;29;20501;-77
2021/04/24 11:11:25;;;;;;;12.50;9.35;;;;;;;;;;6068586;29;20084;-76
2021/04/24 11:14:27;;;;;;;10.13;9.13;;;;;;;;;;6071815;29;20040;-76
2021/04/24 11:17:31;;;;;;;10.57;9.40;;;;;;;;;;6070884;29;20124;-76
2021/04/24 11:20:49;;;;;;;;;;;;;;;;;;6068946;29;20444;-73
2021/04/24 11:23:52;;;;;;;10.20;8.55;;;;;;;;;;6071390;29;20264;-76
2021/04/24 11:26:53;;;;;;;9.63;8.73;;;;;;;;;;6066487;29;20072;-75
2021/04/24 11:29:55;;;;;;;10.27;9.32;;;;;;;;;;6068122;29;20131;-75
2021/04/24 11:33:29;;;;;;;11.48;8.75;;;;;;;;;;6062509;29;20060;-75
2021/04/24 11:36:31;;;;;;;9.55;8.55;;;;;;;;;;6059073;29;20691;-73
2021/04/24 11:39:32;;;;;;;9.73;8.73;;;;;;;;;;6066401;29;20156;-74
2021/04/24 11:42:34;;;;;;;10.63;8.57;;;;;;;;;;6061824;29;20056;-74
2021/04/24 11:45:46;;;;;;;12.43;8.65;;;;;;;;;;6056976;29;20485;-81
2021/04/24 11:49:05;;;;;;;10.07;9.07;;;;;;;;;;6069349;29;20139;-75
2021/04/24 11:52:10;;;;;;;11.88;10.55;;;;;;;;;;6062602;29;20049;-75
2021/04/24 11:55:11;;;;;;;12.30;10.82;;;;;;;;;;6074794;29;20501;-79
2021/04/24 11:58:13;;;;;;;12.18;10.27;;;;;;;;;;6070058;29;20488;-75
2021/04/24 12:01:19;;;;;;;12.23;11.02;;;;;;;;;;6064257;29;20692;-75
2021/04/24 12:04:25;;;;;;;15.38;10.10;;;;;;;;;;6070251;29;20809;-75
2021/04/24 12:07:27;;;;;;;11.13;9.50;;;;;;;;;;6061048;29;20067;-76
2021/04/24 12:10:29;;;;;;;;;;;;;;;;;;6070886;29;20501;-74
2021/04/24 12:13:30;;;;;;;11.60;10.27;;;;;;;;;;6073423;29;19985;-74
2021/04/24 12:16:45;;;;;;;14.73;11.15;;;;;;;;;;6075859;29;20088;-77
2021/04/24 12:19:46;;;;;;;12.70;11.40;;;;;;;;;;6075849;29;20059;-76
2021/04/24 12:22:48;;;;;;;11.88;10.52;;;;;;;;;;6068327;29;20139;-75
2021/04/24 12:25:50;;;;;;;18.23;11.18;;;;;;;;;;6074515;29;20156;-80
2021/04/24 12:28:51;;;;;;;12.73;10.88;;;;;;;;;;6064551;29;20067;-77
2021/04/24 12:31:52;;;;;;;11.73;10.52;;;;;;;;;;6076095;29;20208;-77
2021/04/24 12:34:53;;;;;;;14.35;12.82;;;;;;;;;;6074804;29;20173;-80
2021/04/24 12:38:01;;;;;;;13.73;12.38;;;;;;;;;;6071485;29;20191;-77
2021/04/24 12:41:04;;;;;;;14.00;12.55;;;;;;;;;;6071753;29;20059;-78
2021/04/24 12:44:05;;;;;;;;;;;;;;;;;;6078734;29;20135;-78
2021/04/24 12:47:07;;;;;;;13.45;12.13;;;;;;;;;;6068002;29;20044;-78
2021/04/24 12:50:16;;;;;;;13.43;11.75;;;;;;;;;;6074053;29;20152;-78
2021/04/24 12:53:30;;;;;;;14.73;12.77;;;;;;;;;;6074578;29;20045;-79
2021/04/24 12:56:31;;;;;;;14.45;13.05;;;;;;;;;;6067017;29;20090;-79
2021/04/24 12:59:32;;;;;;;13.88;12.48;;;;;;;;;;6066743;29;20080;-78
2021/04/24 13:02:34;;;;;;;13.40;12.00;;;;;;;;;;6074636;29;20080;-77
2021/04/24 13:05:37;;;;;;;15.65;11.93;;;;;;;;;;6072400;29;20151;-77
2021/04/24 13:08:39;;;;;;;14.75;12.07;;;;;;;;;;6043464;29;20067;-78
2021/04/24 13:11:41;;;;;;;15.98;12.23;;;;;;;;;;6072154;29;20167;-78
2021/04/24 13:14:44;;;;;;;12.60;11.38;;;;;;;;;;6074141;29;20044;-78
2021/04/24 13:17:45;;;;;;;;;;;;;;;;;;6071362;29;20056;-78
2021/04/24 13:20:46;;;;;;;14.70;12.52;;;;;;;;;;6074265;29;20010;-79
2021/04/24 13:24:02;;;;;;;15.95;14.07;;;;;;;;;;6074869;29;20057;-78
2021/04/24 13:27:03;;;;;;;15.65;13.90;;;;;;;;;;6076654;29;20044;-78
2021/04/24 13:30:09;;;;;;;12.95;11.30;;;;;;;;;;6071645;29;20168;-77
2021/04/24 13:33:12;;;;;;;15.93;12.80;;;;;;;;;;6076646;29;20165;-78
2021/04/24 13:36:16;;;;;;;15.15;12.30;;;;;;;;;;6076074;29;20056;-80
2021/04/24 13:39:18;;;;;;;16.20;12.27;;;;;;;;;;6070791;29;20063;-81
2021/04/24 13:42:21;;;;;;;14.38;12.93;;;;;;;;;;6071669;29;20135;-79
2021/04/24 13:45:22;;;;;;;18.15;13.02;;;;;;;;;;6070715;29;20194;-78
2021/04/24 13:48:27;;;;;;;14.52;12.07;;;;;;;;;;6068905;29;20619;-79
2021/04/24 13:51:28;;;;;;;14.23;12.82;;;;;;;;;;6075047;29;20084;-79
2021/04/24 13:54:30;;;;;;;15.43;13.80;;;;;;;;;;6073922;29;20073;-79
2021/04/24 13:57:32;;;;;;;15.67;13.20;;;;;;;;;;6070035;29;20120;-79
2021/04/24 14:00:33;;;;;;;14.50;13.00;;;;;;;;;;6065245;29;20971;-79
2021/04/24 14:03:34;;;;;;;13.23;11.85;;;;;;;;;;6062656;29;20080;-83
2021/04/24 14:06:36;;;;;;;14.73;12.93;;;;;;;;;;6069494;29;20052;-80
2021/04/24 14:09:38;;;;;;;14.70;13.05;;;;;;;;;;6074517;29;20040;-80
2021/04/24 14:12:39;;;;;;;15.73;12.57;;;;;;;;;;6075694;29;20052;-80
2021/04/24 14:15:40;;;;;;;16.23;12.77;;;;;;;;;;6066659;29;20065;-80
2021/04/24 14:18:42;;;;;;;14.27;12.88;;;;;;;;;;6065375;29;20044;-79
2021/04/24 14:21:43;;;;;;;14.07;12.67;;;;;;;;;;6072369;29;20412;-79
2021/04/24 14:24:45;;;;;;;15.35;11.85;;;;;;;;;;6069933;29;20147;-81
2021/04/24 14:27:46;;;;;;;15.63;12.18;;;;;;;;;;6060300;29;20053;-78
2021/04/24 14:30:47;;;;;;;13.55;12.25;;;;;;;;;;6066972;29;20143;-80
2021/04/24 14:33:48;;;;;;;14.05;12.65;;;;;;;;;;6059338;29;20524;-78
2021/04/24 14:36:49;;;;;;;15.45;13.65;;;;;;;;;;6053337;29;20053;-77
2021/04/24 14:39:51;;;;;;;20.30;12.75;;;;;;;;;;6051375;29;20080;-76
2021/04/24 14:42:52;;;;;;;14.93;13.50;;;;;;;;;;6050038;29;20056;-76
2021/04/24 14:45:54;;;;;;;15.50;13.85;;;;;;;;;;6043970;29;20083;-77
2021/04/24 14:48:55;;;;;;;13.27;11.40;;;;;;;;;;6054311;29;20827;-76
2021/04/24 14:51:56;;;;;;;13.40;12.05;;;;;;;;;;6049645;29;20184;-76
2021/04/24 14:54:58;;;;;;;15.80;12.85;;;;;;;;;;6064291;29;20139;-77
2021/04/24 14:57:59;;;;;;;18.25;13.45;;;;;;;;;;6056455;29;20045;-76
2021/04/24 15:01:00;;;;;;;15.15;13.48;;;;;;;;;;6059049;29;20484;-76
2021/04/24 15:04:03;;;;;;;18.15;13.35;;;;;;;;;;6059088;29;20049;-75
2021/04/24 15:07:04;;;;;;;14.82;12.85;;;;;;;;;;6067065;29;20095;-76
2021/04/24 15:10:06;;;;;;;14.73;13.15;;;;;;;;;;6065237;29;20082;-76
2021/04/24 15:13:07;;;;;;;;;;;;;;;;;;6063706;29;20052;-72
2021/04/24 15:16:08;;;;;;;14.88;13.18;;;;;;;;;;6065113;29;20327;-76
2021/04/24 15:19:10;;;;;;;17.90;13.68;;;;;;;;;;6062665;29;20131;-82
2021/04/24 15:22:11;;;;;;;13.93;12.38;;;;;;;;;;6073184;29;20604;-79
2021/04/24 15:25:14;;;;;;;15.25;13.73;;;;;;;;;;6063769;29;20742;-74
2021/04/24 15:28:15;;;;;;;15.25;12.60;;;;;;;;;;6059987;29;20202;-75
2021/04/24 15:31:16;;;;;;;18.77;12.77;;;;;;;;;;6051505;29;20092;-75
2021/04/24 15:34:18;;;;;;;21.08;14.32;;;;;;;;;;6052802;29;20208;-76
2021/04/24 15:37:19;;;;;;;17.95;12.45;;;;;;;;;;6056070;29;20132;-75
2021/04/24 15:40:21;;;;;;;17.33;12.48;;;;;;;;;;6058119;29;20621;-74
2021/04/24 15:43:22;;;;;;;15.07;13.18;;;;;;;;;;6060613;29;20153;-75
2021/04/24 15:46:24;;;;;;;22.25;13.55;;;;;;;;;;6053152;29;20250;-70
2021/04/24 15:49:25;;;;;;;20.45;13.77;;;;;;;;;;6055410;29;20144;-78
2021/04/24 15:52:26;;;;;;;19.55;14.07;;;;;;;;;;6072779;29;20462;-79
2021/04/24 15:55:29;;;;;;;17.50;13.65;;;;;;;;;;6070210;29;20076;-78
2021/04/24 15:58:30;;;;;;;20.85;13.13;;;;;;;;;;6077764;29;20080;-80
2021/04/24 16:01:31;;;;;;;19.80;13.02;;;;;;;;;;6063236;29;20646;-73
2021/04/24 16:04:32;;;;;;;15.80;12.98;;;;;;;;;;6068552;29;20115;-78
2021/04/24 16:07:33;;;;;;;20.85;14.40;;;;;;;;;;6073058;29;20092;-77
2021/04/24 16:10:37;;;;;;;20.08;13.55;;;;;;;;;;6072312;29;20131;-74
2021/04/24 16:13:38;;;;;;;17.50;13.25;;;;;;;;;;6069513;29;20056;-79
2021/04/24 16:16:39;;;;;;;18.02;13.98;;;;;;;;;;6071913;29;20159;-77
2021/04/24 16:19:40;;;;;;;16.85;13.75;;;;;;;;;;6063249;29;20080;-74
2021/04/24 16:22:42;;;;;;;16.30;13.25;;;;;;;;;;6060170;29;20083;-75
2021/04/24 16:25:44;;;;;;;17.33;13.23;;;;;;;;;;6064897;29;20128;-77
2021/04/24 16:28:45;;;;;;;17.05;12.55;;;;;;;;;;6062518;29;20048;-77
2021/04/24 16:31:46;;;;;;;14.52;12.65;;;;;;;;;;6059425;29;20128;-78
2021/04/24 16:34:47;;;;;;;17.20;12.70;;;;;;;;;;6053941;29;20053;-77
2021/04/24 16:37:49;;;;;;;18.17;12.93;;;;;;;;;;6051668;29;20136;-75
2021/04/24 16:40:51;;;;;;;18.48;13.05;;;;;;;;;;6063344;29;20100;-77
2021/04/24 16:43:52;;;;;;;17.13;12.88;;;;;;;;;;6065785;29;20185;-77
2021/04/24 16:46:53;;;;;;;17.60;12.93;;;;;;;;;;6070629;29;20069;-76
2021/04/24 16:49:54;;;;;;;19.17;13.88;;;;;;;;;;6066555;29;20151;-76
2021/04/24 16:52:56;;;;;;;24.00;13.98;;;;;;;;;;6066082;29;20104;-77
2021/04/24 16:55:58;;;;;;;18.30;11.20;;;;;;;;;;6064039;29;20070;-76
2021/04/24 16:58:59;;;;;;;14.93;11.73;;;;;;;;;;6070359;29;20044;-76
2021/04/24 17:02:00;;;;;;;16.45;12.30;;;;;;;;;;6065282;29;20044;-76
2021/04/24 17:05:01;;;;;;;18.48;13.77;;;;;;;;;;6066380;29;20072;-76
2021/04/24 17:08:02;;;;;;;20.98;14.18;;;;;;;;;;6064838;29;20105;-74
2021/04/24 17:11:04;;;;;;;19.00;14.18;;;;;;;;;;6057421;29;20088;-77
2021/04/24 17:14:06;;;;;;;20.88;13.30;;;;;;;;;;6057640;29;20523;-77
2021/04/24 17:17:07;;;;;;;18.48;13.98;;;;;;;;;;6066375;29;20049;-75
2021/04/24 17:20:10;;;;;;;18.20;14.02;;;;;;;;;;6061541;29;20056;-75
2021/04/24 17:23:11;;;;;;;17.80;13.50;;;;;;;;;;6057014;29;20088;-75
2021/04/24 17:26:13;;;;;;;18.42;13.43;;;;;;;;;;6054402;29;20144;-75
2021/04/24 17:29:14;;;;;;;26.52;16.77;;;;;;;;;;6056003;29;20041;-74
2021/04/24 17:32:15;;;;;;;19.85;14.05;;;;;;;;;;6054352;29;20687;-74
2021/04/24 17:35:16;;;;;;;17.45;13.70;;;;;;;;;;6059342;29;20084;-73
2021/04/24 17:38:17;;;;;;;20.02;14.77;;;;;;;;;;6049841;29;20177;-74
2021/04/24 17:41:20;;;;;;;20.98;14.60;;;;;;;;;;6062013;29;20619;-77
2021/04/24 17:44:21;;;;;;;19.63;13.75;;;;;;;;;;6053236;29;20048;-75
2021/04/24 17:47:23;;;;;;;18.30;13.45;;;;;;;;;;6054553;29;20165;-77